Terminal Aerodrome Forecast
Issued by NWS

Home | Current Version | Previous Version | Text Only | Print | Product List | Glossary Off
Versions: 1 2 3 4 5 6 7 8 9 10 11 12 13 14 15 16 17 18 19 20 21 22 23 24 25 26 27 28 29 30 31 32 33 34 35 36 37 38 39 40 41 42 43 44 45 46 47 48

855
FTUS43 KLOT 171729
TAFGYY
TAF
KGYY 171729Z 1718/1818 22013G19KT P6SM SKC
     FM180000 21013KT P6SM SKC
     FM180600 22010KT P6SM FEW300 WS008/25045KT
     FM181100 25008KT P6SM FEW250=

USA.gov is the U.S. government's official web portal to all federal, state and local government web resources and services.